createdAt,value
2023-05-21T00:01:23.446Z,1019.93
2023-05-21T00:03:50.410Z,1019.99
2023-05-21T00:06:17.390Z,1019.90
2023-05-21T00:08:44.255Z,1019.93
2023-05-21T00:11:11.028Z,1019.98
2023-05-21T00:13:39.173Z,1019.93
2023-05-21T00:16:06.802Z,1019.95
2023-05-21T00:18:33.658Z,1019.94
2023-05-21T00:21:00.566Z,1019.88
2023-05-21T00:23:27.353Z,1019.83
2023-05-21T00:25:54.233Z,1019.78
2023-05-21T00:28:21.129Z,1019.75
2023-05-21T00:30:49.512Z,1019.83
2023-05-21T00:33:16.414Z,1019.89
2023-05-21T00:35:43.701Z,1019.92
2023-05-21T00:38:10.546Z,1019.96
2023-05-21T00:40:37.420Z,1020.06
2023-05-21T00:43:05.059Z,1019.94
2023-05-21T00:45:31.869Z,1019.89
2023-05-21T00:48:00.184Z,1019.73
2023-05-21T00:50:27.126Z,1019.71
2023-05-21T00:52:54.551Z,1019.68
2023-05-21T00:55:21.776Z,1019.70
2023-05-21T00:57:48.802Z,1019.75
2023-05-21T01:00:16.021Z,1019.81
2023-05-21T01:02:43.742Z,1019.79
2023-05-21T01:05:12.329Z,1019.89
2023-05-21T01:07:41.336Z,1019.94
2023-05-21T01:10:11.724Z,1019.89
2023-05-21T01:12:41.729Z,1019.98
2023-05-21T01:15:09.769Z,1019.90
2023-05-21T01:17:36.937Z,1020.00
2023-05-21T01:20:07.959Z,1020.03
2023-05-21T01:22:41.917Z,1019.89
2023-05-21T01:25:10.890Z,1019.95
2023-05-21T01:27:37.707Z,1019.86
2023-05-21T01:30:05.546Z,1019.87
2023-05-21T01:32:37.545Z,1019.90
2023-05-21T01:35:08.161Z,1019.80
2023-05-21T01:37:39.308Z,1019.82
2023-05-21T01:40:14.038Z,1019.85
2023-05-21T01:42:44.294Z,1019.79
2023-05-21T01:45:12.595Z,1019.69
2023-05-21T01:47:41.136Z,1019.64
2023-05-21T01:50:09.720Z,1019.60
2023-05-21T01:52:36.649Z,1019.58
2023-05-21T01:55:03.761Z,1019.63
2023-05-21T01:57:32.193Z,1019.67
2023-05-21T02:00:00.232Z,1019.66
2023-05-21T02:02:27.116Z,1019.62
2023-05-21T02:04:54.030Z,1019.63
2023-05-21T02:07:23.116Z,1019.72
2023-05-21T02:09:49.884Z,1019.83
2023-05-21T02:12:16.711Z,1019.75
2023-05-21T02:14:44.887Z,1019.74
2023-05-21T02:17:11.719Z,1019.82
2023-05-21T02:19:38.555Z,1019.77
2023-05-21T02:22:05.581Z,1019.71
2023-05-21T02:24:32.429Z,1019.61
2023-05-21T02:26:59.232Z,1019.59
2023-05-21T02:29:26.044Z,1019.46
2023-05-21T02:31:54.371Z,1019.47
2023-05-21T02:34:21.488Z,1019.46
2023-05-21T02:36:48.489Z,1019.31
2023-05-21T02:39:15.389Z,1019.25
2023-05-21T02:41:42.198Z,1019.40
2023-05-21T02:44:09.082Z,1019.25
2023-05-21T02:46:35.890Z,1019.24
2023-05-21T02:49:04.072Z,1019.10
2023-05-21T02:51:30.893Z,1019.17
2023-05-21T02:53:57.696Z,1019.19
2023-05-21T02:56:24.506Z,1019.17
2023-05-21T02:58:51.844Z,1019.13
2023-05-21T03:01:18.856Z,1019.13
2023-05-21T03:03:46.398Z,1019.20
2023-05-21T03:06:15.335Z,1019.13
2023-05-21T03:08:42.226Z,1019.27
2023-05-21T03:11:09.284Z,1019.31
2023-05-21T03:13:36.142Z,1019.29
2023-05-21T03:16:03.052Z,1019.31
2023-05-21T03:18:29.804Z,1019.21
2023-05-21T03:20:56.634Z,1019.32
2023-05-21T03:23:24.916Z,1019.16
2023-05-21T03:25:51.776Z,1019.20
2023-05-21T03:28:18.579Z,1019.20
2023-05-21T03:30:45.373Z,1019.26
2023-05-21T03:33:12.624Z,1019.22
2023-05-21T03:35:39.447Z,1019.26
2023-05-21T03:38:06.229Z,1019.28
2023-05-21T03:40:34.474Z,1019.26
2023-05-21T03:43:01.258Z,1019.28
2023-05-21T03:45:28.122Z,1019.24
2023-05-21T03:47:55.052Z,1019.16
2023-05-21T03:50:21.896Z,1019.15
2023-05-21T03:52:48.741Z,1019.13
2023-05-21T03:55:15.785Z,1019.13
2023-05-21T03:57:44.046Z,1019.15
2023-05-21T04:00:11.579Z,1019.15
2023-05-21T04:02:38.548Z,1019.17
2023-05-21T04:05:06.316Z,1019.18
2023-05-21T04:07:34.293Z,1019.18
2023-05-21T04:10:01.198Z,1019.31
2023-05-21T04:12:28.129Z,1019.40
2023-05-21T04:14:56.352Z,1019.33
2023-05-21T04:17:23.325Z,1019.35
2023-05-21T04:19:50.243Z,1019.28
2023-05-21T04:22:17.152Z,1019.35
2023-05-21T04:24:43.968Z,1019.32
2023-05-21T04:27:11.109Z,1019.25
2023-05-21T04:29:38.360Z,1019.43
2023-05-21T04:32:07.299Z,1019.43
2023-05-21T04:34:34.077Z,1019.45
2023-05-21T04:37:01.086Z,1019.40
2023-05-21T04:39:28.111Z,1019.48
2023-05-21T04:41:55.034Z,1019.48
2023-05-21T04:44:21.996Z,1019.40
2023-05-21T04:46:48.934Z,1019.41
2023-05-21T04:49:17.113Z,1019.41
2023-05-21T04:51:43.915Z,1019.26
2023-05-21T04:54:10.802Z,1019.26
2023-05-21T04:56:37.614Z,1019.35
2023-05-21T04:59:05.573Z,1019.22
2023-05-21T05:01:34.345Z,1019.19
2023-05-21T05:04:01.307Z,1019.21
2023-05-21T05:06:29.549Z,1019.16
2023-05-21T05:08:56.438Z,1019.07
2023-05-21T05:11:23.195Z,1019.05
2023-05-21T05:13:51.164Z,1019.02
2023-05-21T05:16:18.056Z,1018.96
2023-05-21T05:18:44.958Z,1018.95
2023-05-21T05:21:11.760Z,1018.89
2023-05-21T05:23:40.175Z,1018.90
2023-05-21T05:26:06.951Z,1018.87
2023-05-21T05:28:33.741Z,1018.85
2023-05-21T05:31:00.573Z,1018.81
2023-05-21T05:33:29.468Z,1018.77
2023-05-21T05:35:56.376Z,1018.72
2023-05-21T05:38:23.138Z,1018.66
2023-05-21T05:40:51.612Z,1018.60
2023-05-21T05:43:18.477Z,1018.65
2023-05-21T05:45:45.325Z,1018.70
2023-05-21T05:48:12.203Z,1018.71
2023-05-21T05:50:39.055Z,1018.71
2023-05-21T05:53:05.855Z,1018.62
2023-05-21T05:55:32.635Z,1018.55
2023-05-21T05:58:00.822Z,1018.52
2023-05-21T06:00:28.149Z,1018.44
2023-05-21T06:02:55.136Z,1018.47
2023-05-21T06:05:22.220Z,1018.41
2023-05-21T06:07:49.116Z,1018.37
2023-05-21T06:10:15.952Z,1018.42
2023-05-21T06:12:42.820Z,1018.44
2023-05-21T06:15:11.735Z,1018.43
2023-05-21T06:17:38.585Z,1018.48
2023-05-21T06:20:06.829Z,1018.56
2023-05-21T06:22:33.916Z,1018.62
2023-05-21T06:25:00.709Z,1018.74
2023-05-21T06:27:27.593Z,1018.69
2023-05-21T06:29:54.451Z,1018.56
2023-05-21T06:32:22.715Z,1018.49
2023-05-21T06:34:49.661Z,1018.45
2023-05-21T06:37:20.588Z,1018.35
2023-05-21T06:39:48.406Z,1018.44
2023-05-21T06:42:16.367Z,1018.32
2023-05-21T06:44:44.717Z,1018.09
2023-05-21T06:47:12.236Z,1018.07
2023-05-21T06:49:40.516Z,1018.08
2023-05-21T06:52:07.404Z,1018.12
2023-05-21T06:54:34.303Z,1018.08
2023-05-21T06:57:01.459Z,1018.05
2023-05-21T06:59:28.333Z,1018.07
2023-05-21T07:01:55.247Z,1018.09
2023-05-21T07:04:22.183Z,1017.98
2023-05-21T07:06:50.431Z,1018.03
2023-05-21T07:09:17.210Z,1017.94
2023-05-21T07:11:44.491Z,1017.87
2023-05-21T07:14:11.501Z,1017.78
2023-05-21T07:16:38.800Z,1017.73
2023-05-21T07:19:05.924Z,1017.76
2023-05-21T07:21:32.770Z,1017.73
2023-05-21T07:24:01.277Z,1017.57
2023-05-21T07:26:28.178Z,1017.47
2023-05-21T07:28:55.056Z,1017.53
2023-05-21T07:31:21.837Z,1017.35
2023-05-21T07:33:48.701Z,1017.18
2023-05-21T07:36:15.701Z,1017.11
2023-05-21T07:38:43.765Z,1017.09
2023-05-21T07:41:16.447Z,1017.03
2023-05-21T07:43:44.879Z,1016.85
2023-05-21T07:46:12.149Z,1016.84
2023-05-21T07:48:39.278Z,1016.63
2023-05-21T07:51:06.460Z,1016.60
2023-05-21T07:53:33.588Z,1016.51
2023-05-21T07:56:00.924Z,1016.34
2023-05-21T07:58:29.476Z,1016.10
2023-05-21T08:00:56.384Z,1016.16
2023-05-21T08:03:23.543Z,1015.98
2023-05-21T08:05:50.427Z,1015.91
2023-05-21T08:08:17.991Z,1015.81
2023-05-21T08:10:45.528Z,1015.65
2023-05-21T08:13:13.263Z,1015.56
2023-05-21T08:15:41.480Z,1015.38
2023-05-21T08:18:08.368Z,1015.25
2023-05-21T08:20:35.679Z,1015.19
2023-05-21T08:23:02.750Z,1015.15
2023-05-21T08:25:29.847Z,1015.05
2023-05-21T08:27:56.960Z,1014.96
2023-05-21T08:30:23.815Z,1015.02
2023-05-21T08:32:53.061Z,1014.79
2023-05-21T08:35:20.158Z,1014.66
2023-05-21T08:37:48.879Z,1014.59
2023-05-21T08:40:15.811Z,1014.46
2023-05-21T08:42:46.003Z,1014.59
2023-05-21T08:45:14.206Z,1014.96
2023-05-21T08:47:42.775Z,1014.96
2023-05-21T08:50:14.557Z,1014.79
2023-05-21T08:52:41.817Z,1014.94
2023-05-21T08:55:10.570Z,1014.68
2023-05-21T08:57:40.883Z,1014.76
2023-05-21T09:00:08.755Z,1014.72
2023-05-21T09:02:37.674Z,1014.62
2023-05-21T09:05:05.136Z,1014.66
2023-05-21T09:07:39.322Z,1014.77
2023-05-21T09:10:08.543Z,1014.81
2023-05-21T09:12:35.473Z,1014.71
2023-05-21T09:15:03.813Z,1014.62
2023-05-21T09:17:32.381Z,1014.24
2023-05-21T09:20:10.797Z,1014.35
2023-05-21T09:22:40.897Z,1014.36
2023-05-21T09:25:10.395Z,1014.16
2023-05-21T09:27:37.572Z,1014.21
2023-05-21T09:30:09.416Z,1014.20
2023-05-21T09:32:36.718Z,1014.15
2023-05-21T09:35:07.520Z,1014.13
2023-05-21T09:37:38.887Z,1013.90
2023-05-21T09:40:10.901Z,1013.74
2023-05-21T09:42:39.560Z,1013.89
2023-05-21T09:45:09.582Z,1013.84
2023-05-21T09:47:41.582Z,1013.62
2023-05-21T09:50:09.782Z,1013.60
2023-05-21T09:52:37.195Z,1014.15
2023-05-21T09:55:06.492Z,1014.12
2023-05-21T09:57:33.267Z,1014.17
2023-05-21T10:00:00.517Z,1014.64
2023-05-21T10:02:29.263Z,1014.67
2023-05-21T10:04:57.272Z,1014.70
2023-05-21T10:07:25.992Z,1014.65
2023-05-21T10:09:54.854Z,1014.79
2023-05-21T10:12:27.823Z,1014.92
2023-05-21T10:15:00.101Z,1014.96
2023-05-21T10:17:27.889Z,1015.04
2023-05-21T10:19:56.277Z,1015.26
2023-05-21T10:22:25.631Z,1015.22
2023-05-21T10:24:52.830Z,1015.23
2023-05-21T10:27:20.169Z,1015.08
2023-05-21T10:29:49.773Z,1015.11
2023-05-21T10:32:16.814Z,1015.29
2023-05-21T10:34:44.169Z,1015.12
2023-05-21T10:37:13.207Z,1015.08
2023-05-21T10:39:40.130Z,1015.05
2023-05-21T10:42:18.936Z,1015.03
2023-05-21T10:45:02.711Z,1015.29
2023-05-21T10:48:01.009Z,1015.09
2023-05-21T10:50:55.862Z,1014.95
2023-05-21T10:53:31.685Z,1014.92
2023-05-21T10:56:14.946Z,1014.89
2023-05-21T10:59:03.320Z,1014.97
2023-05-21T11:01:34.759Z,1014.92
2023-05-21T11:04:02.159Z,1014.54
2023-05-21T11:06:29.160Z,1014.46
2023-05-21T11:08:56.018Z,1014.36
2023-05-21T11:11:45.970Z,1014.51
2023-05-21T11:14:33.004Z,1014.76
2023-05-21T11:17:01.954Z,1014.90
2023-05-21T11:19:39.597Z,1014.86
2023-05-21T11:22:20.581Z,1014.95
2023-05-21T11:24:49.351Z,1014.99
2023-05-21T11:27:31.230Z,1015.40
2023-05-21T11:29:58.176Z,1015.32
2023-05-21T11:32:26.615Z,1015.26
2023-05-21T11:34:53.573Z,1015.39
2023-05-21T11:37:28.680Z,1015.32
2023-05-21T11:39:56.802Z,1015.38
2023-05-21T11:42:34.661Z,1015.33
2023-05-21T11:45:02.676Z,1015.31
2023-05-21T11:47:31.600Z,1015.18
2023-05-21T11:49:59.742Z,1015.28
2023-05-21T11:52:29.276Z,1015.24
2023-05-21T11:54:56.357Z,1015.19
2023-05-21T11:57:26.228Z,1015.19
2023-05-21T11:59:53.336Z,1015.21
2023-05-21T12:02:21.956Z,1015.22
2023-05-21T12:04:51.095Z,1015.24
2023-05-21T12:07:19.461Z,1015.24
2023-05-21T12:09:47.380Z,1015.23
2023-05-21T12:12:16.187Z,1015.30
2023-05-21T12:14:44.877Z,1015.26
2023-05-21T12:17:11.828Z,1015.11
2023-05-21T12:19:39.057Z,1015.07
2023-05-21T12:22:11.434Z,1014.68
2023-05-21T12:24:39.240Z,1014.70
2023-05-21T12:27:07.547Z,1014.90
2023-05-21T12:29:36.370Z,1014.73
2023-05-21T12:32:04.950Z,1014.79
2023-05-21T12:34:43.572Z,1014.63
2023-05-21T12:37:15.721Z,1014.62
2023-05-21T12:39:44.275Z,1014.66
2023-05-21T12:42:11.523Z,1014.66
2023-05-21T12:44:39.478Z,1014.56
2023-05-21T12:47:06.727Z,1014.53
2023-05-21T12:49:34.725Z,1014.44
2023-05-21T12:52:08.099Z,1014.72
2023-05-21T12:54:39.396Z,1014.74
2023-05-21T12:57:07.598Z,1014.83
2023-05-21T12:59:45.439Z,1014.92
2023-05-21T13:02:15.147Z,1014.94
2023-05-21T13:04:42.196Z,1014.98
2023-05-21T13:07:08.985Z,1014.94
2023-05-21T13:09:37.879Z,1014.85
2023-05-21T13:12:05.163Z,1014.80
2023-05-21T13:14:32.024Z,1014.85
2023-05-21T13:16:58.877Z,1014.85
2023-05-21T13:19:25.906Z,1014.93
2023-05-21T13:21:52.866Z,1014.80
2023-05-21T13:24:19.631Z,1014.96
2023-05-21T13:26:47.831Z,1014.80
2023-05-21T13:29:14.593Z,1014.92
2023-05-21T13:31:41.750Z,1014.89
2023-05-21T13:34:08.512Z,1014.86
2023-05-21T13:36:35.307Z,1014.86
2023-05-21T13:39:02.241Z,1014.64
2023-05-21T13:41:29.182Z,1014.57
2023-05-21T13:43:57.584Z,1014.55
2023-05-21T13:46:25.439Z,1014.44
2023-05-21T13:48:52.337Z,1014.33
2023-05-21T13:51:37.053Z,1014.31
2023-05-21T13:54:05.233Z,1014.35
2023-05-21T13:56:32.089Z,1014.26
2023-05-21T13:59:00.746Z,1014.20
2023-05-21T14:01:27.757Z,1014.23
2023-05-21T14:03:54.565Z,1014.27
2023-05-21T14:06:21.377Z,1014.16
2023-05-21T14:08:48.336Z,1014.16
2023-05-21T14:11:15.174Z,1014.31
2023-05-21T14:13:42.037Z,1014.29
2023-05-21T14:16:10.228Z,1014.37
2023-05-21T14:18:37.161Z,1014.37
2023-05-21T14:21:04.166Z,1014.30
2023-05-21T14:23:31.048Z,1013.97
2023-05-21T14:25:58.721Z,1013.71
2023-05-21T14:28:25.485Z,1013.92
2023-05-21T14:30:52.361Z,1013.86
2023-05-21T14:33:21.581Z,1013.98
2023-05-21T14:35:48.627Z,1014.13
2023-05-21T14:38:15.892Z,1014.08
2023-05-21T14:40:42.978Z,1014.18
2023-05-21T14:43:10.265Z,1014.34
2023-05-21T14:45:37.249Z,1014.34
2023-05-21T14:48:04.649Z,1014.41
2023-05-21T14:50:33.002Z,1014.56
2023-05-21T14:53:04.117Z,1014.73
2023-05-21T14:55:35.411Z,1014.77
2023-05-21T14:58:04.112Z,1014.83
2023-05-21T15:00:31.371Z,1014.86
2023-05-21T15:02:58.578Z,1014.91
2023-05-21T15:05:25.702Z,1015.02
2023-05-21T15:07:53.936Z,1015.10
2023-05-21T15:10:20.697Z,1014.97
2023-05-21T15:12:47.589Z,1015.01
2023-05-21T15:15:14.621Z,1014.97
2023-05-21T15:17:41.433Z,1014.93
2023-05-21T15:20:09.175Z,1014.85
2023-05-21T15:22:36.395Z,1014.93
2023-05-21T15:25:05.381Z,1014.86
2023-05-21T15:27:32.798Z,1014.91
2023-05-21T15:29:59.887Z,1014.83
2023-05-21T15:32:28.039Z,1014.80
2023-05-21T15:34:55.121Z,1014.83
2023-05-21T15:37:22.149Z,1014.61
2023-05-21T15:39:48.955Z,1014.68
2023-05-21T15:42:18.072Z,1014.68
2023-05-21T15:44:44.842Z,1014.69
2023-05-21T15:47:11.646Z,1014.70
2023-05-21T15:49:38.397Z,1014.68
2023-05-21T15:52:06.029Z,1014.60
2023-05-21T15:54:32.924Z,1014.61
2023-05-21T15:56:59.736Z,1014.62
2023-05-21T15:59:27.949Z,1014.55
2023-05-21T16:01:56.008Z,1014.54
2023-05-21T16:04:22.800Z,1014.64
2023-05-21T16:06:49.726Z,1014.64
2023-05-21T16:09:16.664Z,1014.62
2023-05-21T16:11:43.779Z,1014.55
2023-05-21T16:14:12.129Z,1014.46
2023-05-21T16:16:42.744Z,1014.47
2023-05-21T16:19:09.594Z,1014.46
2023-05-21T16:21:36.472Z,1014.47
2023-05-21T16:24:06.566Z,1014.45
2023-05-21T16:26:33.540Z,1014.46
2023-05-21T16:29:02.239Z,1014.39
2023-05-21T16:31:29.341Z,1014.45
2023-05-21T16:33:57.516Z,1014.48
2023-05-21T16:36:24.286Z,1014.44
2023-05-21T16:38:51.157Z,1014.49
2023-05-21T16:41:24.620Z,1014.53
2023-05-21T16:43:51.482Z,1014.44
2023-05-21T16:46:18.602Z,1014.46
2023-05-21T16:48:45.465Z,1014.55
2023-05-21T16:51:13.698Z,1014.53
2023-05-21T16:53:40.468Z,1014.56
2023-05-21T16:56:10.278Z,1014.58
2023-05-21T16:58:37.145Z,1014.57
2023-05-21T17:01:04.219Z,1014.64
2023-05-21T17:03:31.253Z,1014.69
2023-05-21T17:05:58.097Z,1014.73
2023-05-21T17:08:26.237Z,1014.83
2023-05-21T17:10:53.164Z,1014.77
2023-05-21T17:13:22.792Z,1014.80
2023-05-21T17:15:50.813Z,1014.75
2023-05-21T17:18:17.822Z,1014.85
2023-05-21T17:20:44.812Z,1014.93
2023-05-21T17:23:12.350Z,1015.00
2023-05-21T17:25:41.195Z,1015.10
2023-05-21T17:28:08.212Z,1015.12
2023-05-21T17:30:35.083Z,1015.24
2023-05-21T17:33:01.978Z,1015.20
2023-05-21T17:35:29.001Z,1015.14
2023-05-21T17:37:55.819Z,1015.24
2023-05-21T17:40:23.806Z,1015.26
2023-05-21T17:42:52.408Z,1015.25
2023-05-21T17:45:19.438Z,1015.40
2023-05-21T17:47:46.428Z,1015.40
2023-05-21T17:50:13.751Z,1015.45
2023-05-21T17:52:40.570Z,1015.48
2023-05-21T17:55:08.082Z,1015.51
2023-05-21T17:57:34.983Z,1015.56
2023-05-21T18:00:03.958Z,1015.63
2023-05-21T18:02:30.908Z,1015.63
2023-05-21T18:04:57.743Z,1015.77
2023-05-21T18:07:24.681Z,1015.92
2023-05-21T18:09:51.541Z,1016.02
2023-05-21T18:12:18.456Z,1016.03
2023-05-21T18:14:45.408Z,1016.11
2023-05-21T18:17:14.618Z,1016.27
2023-05-21T18:19:41.376Z,1016.26
2023-05-21T18:22:08.414Z,1016.22
2023-05-21T18:24:35.202Z,1016.17
2023-05-21T18:27:02.119Z,1016.28
2023-05-21T18:29:28.857Z,1016.29
2023-05-21T18:31:55.682Z,1016.29
2023-05-21T18:34:23.932Z,1016.11
2023-05-21T18:36:50.716Z,1016.26
2023-05-21T18:39:17.553Z,1016.29
2023-05-21T18:41:44.375Z,1016.38
2023-05-21T18:44:11.156Z,1016.49
2023-05-21T18:46:38.091Z,1016.59
2023-05-21T18:49:05.647Z,1016.59
2023-05-21T18:51:33.998Z,1016.73
2023-05-21T18:54:00.796Z,1016.68
2023-05-21T18:56:28.096Z,1016.73
2023-05-21T18:58:55.348Z,1016.83
2023-05-21T19:01:22.708Z,1016.86
2023-05-21T19:03:49.825Z,1016.84
2023-05-21T19:06:16.912Z,1016.78
2023-05-21T19:08:45.797Z,1016.57
2023-05-21T19:11:12.826Z,1016.73
2023-05-21T19:13:42.464Z,1016.83
2023-05-21T19:16:11.455Z,1016.82
2023-05-21T19:18:41.289Z,1016.75
2023-05-21T19:21:16.380Z,1016.75
2023-05-21T19:23:53.142Z,1016.72
2023-05-21T19:26:38.691Z,1016.88
2023-05-21T19:29:10.067Z,1016.83
2023-05-21T19:31:40.478Z,1016.92
2023-05-21T19:34:09.349Z,1016.85
2023-05-21T19:36:51.687Z,1016.90
2023-05-21T19:39:21.595Z,1016.98
2023-05-21T19:41:48.589Z,1016.96
2023-05-21T19:44:15.908Z,1017.06
2023-05-21T19:46:43.317Z,1017.23
2023-05-21T19:49:10.963Z,1017.22
2023-05-21T19:51:38.926Z,1017.37
2023-05-21T19:54:08.374Z,1017.45
2023-05-21T19:56:40.448Z,1017.57
2023-05-21T19:59:07.999Z,1017.64
2023-05-21T20:01:35.247Z,1017.69
2023-05-21T20:04:03.427Z,1017.66
2023-05-21T20:06:30.588Z,1017.60
2023-05-21T20:08:57.847Z,1017.82
2023-05-21T20:11:24.780Z,1017.72
2023-05-21T20:13:53.865Z,1017.81
2023-05-21T20:16:20.889Z,1017.85
2023-05-21T20:18:47.874Z,1017.65
2023-05-21T20:21:18.462Z,1017.66
2023-05-21T20:23:45.782Z,1017.69
2023-05-21T20:26:13.306Z,1017.64
2023-05-21T20:28:40.445Z,1017.60
2023-05-21T20:31:14.908Z,1017.58
2023-05-21T20:33:43.213Z,1017.65
2023-05-21T20:36:10.490Z,1017.55
2023-05-21T20:38:37.381Z,1017.40
2023-05-21T20:41:05.259Z,1017.46
2023-05-21T20:43:32.249Z,1017.48
2023-05-21T20:46:00.281Z,1017.48
2023-05-21T20:48:29.706Z,1017.57
2023-05-21T20:51:00.484Z,1017.62
2023-05-21T20:53:31.641Z,1017.67
2023-05-21T20:56:01.874Z,1017.73
2023-05-21T20:58:28.757Z,1017.60
2023-05-21T21:00:55.642Z,1017.69
2023-05-21T21:03:22.644Z,1017.78
2023-05-21T21:05:50.966Z,1017.80
2023-05-21T21:08:17.787Z,1017.67
2023-05-21T21:10:45.655Z,1017.77
2023-05-21T21:13:13.469Z,1017.89
2023-05-21T21:15:40.372Z,1017.89
2023-05-21T21:18:07.288Z,1017.97
2023-05-21T21:20:34.552Z,1017.99
2023-05-21T21:23:03.266Z,1018.05
2023-05-21T21:25:30.351Z,1017.98
2023-05-21T21:27:57.242Z,1018.13
2023-05-21T21:30:27.547Z,1018.08
2023-05-21T21:32:54.638Z,1018.26
2023-05-21T21:35:21.427Z,1018.35
2023-05-21T21:37:48.332Z,1018.46
2023-05-21T21:40:17.241Z,1018.43
2023-05-21T21:42:44.453Z,1018.53
2023-05-21T21:45:12.489Z,1018.50
2023-05-21T21:47:41.217Z,1018.65
2023-05-21T21:50:09.239Z,1018.59
2023-05-21T21:52:37.729Z,1018.62
2023-05-21T21:55:07.443Z,1018.55
2023-05-21T21:57:36.416Z,1018.71
2023-05-21T22:00:04.355Z,1018.71
2023-05-21T22:02:34.956Z,1018.74
2023-05-21T22:05:02.603Z,1018.79
2023-05-21T22:07:30.446Z,1018.84
2023-05-21T22:09:58.203Z,1018.79
2023-05-21T22:12:25.175Z,1018.76
2023-05-21T22:14:53.314Z,1018.74
2023-05-21T22:17:20.072Z,1018.65
2023-05-21T22:19:47.004Z,1018.59
2023-05-21T22:22:13.862Z,1018.56
2023-05-21T22:24:40.825Z,1018.50
2023-05-21T22:27:07.774Z,1018.46
2023-05-21T22:29:35.160Z,1018.36
2023-05-21T22:32:06.221Z,1018.27
2023-05-21T22:34:33.790Z,1018.24
2023-05-21T22:37:01.445Z,1018.20
2023-05-21T22:39:31.246Z,1018.37
2023-05-21T22:42:00.134Z,1018.44
2023-05-21T22:44:28.622Z,1018.54
2023-05-21T22:46:56.285Z,1018.53
2023-05-21T22:49:25.119Z,1018.58
2023-05-21T22:51:53.153Z,1018.62
2023-05-21T22:54:20.101Z,1018.67
2023-05-21T22:56:48.361Z,1018.64
2023-05-21T22:59:16.379Z,1018.59
2023-05-21T23:01:43.456Z,1018.60
2023-05-21T23:04:10.922Z,1018.70
2023-05-21T23:06:40.331Z,1018.68
2023-05-21T23:09:08.093Z,1018.78
2023-05-21T23:11:36.629Z,1018.91
2023-05-21T23:14:03.983Z,1018.96
2023-05-21T23:16:31.603Z,1018.94
2023-05-21T23:18:59.221Z,1019.03
2023-05-21T23:21:26.509Z,1019.02
2023-05-21T23:23:54.756Z,1019.05
2023-05-21T23:26:21.702Z,1018.83
2023-05-21T23:28:48.581Z,1018.95
2023-05-21T23:31:15.545Z,1019.05
2023-05-21T23:33:42.365Z,1019.08
2023-05-21T23:36:09.331Z,1018.88
2023-05-21T23:38:36.122Z,1018.84
2023-05-21T23:41:07.125Z,1018.88
2023-05-21T23:46:15.336Z,1018.95
2023-05-21T23:48:42.199Z,1018.91
2023-05-21T23:51:09.045Z,1019.00
2023-05-21T23:53:35.928Z,1019.03
2023-05-21T23:56:04.467Z,1019.01
2023-05-21T23:58:31.235Z,1018.96
